sensor_id;sensor_type;location;lat;lon;timestamp;temperature;humidity
30037;DHT22;36325;51.512;-0.382;2023-04-19T00:02:22;9.90;99.90
30037;DHT22;36325;51.512;-0.382;2023-04-19T00:04:49;9.90;99.90
30037;DHT22;36325;51.512;-0.382;2023-04-19T00:07:17;9.80;99.90
30037;DHT22;36325;51.512;-0.382;2023-04-19T00:09:47;9.80;99.90
30037;DHT22;36325;51.512;-0.382;2023-04-19T00:12:14;9.80;99.90
30037;DHT22;36325;51.512;-0.382;2023-04-19T00:14:41;9.80;99.90
30037;DHT22;36325;51.512;-0.382;2023-04-19T00:17:10;9.80;99.90
30037;DHT22;36325;51.512;-0.382;2023-04-19T00:19:37;9.70;99.90
30037;DHT22;36325;51.512;-0.382;2023-04-19T00:24:32;9.70;99.90
30037;DHT22;36325;51.512;-0.382;2023-04-19T00:26:59;9.60;99.90
30037;DHT22;36325;51.512;-0.382;2023-04-19T00:29:28;9.60;99.90
30037;DHT22;36325;51.512;-0.382;2023-04-19T00:31:57;9.50;99.90
30037;DHT22;36325;51.512;-0.382;2023-04-19T00:34:24;9.60;99.90
30037;DHT22;36325;51.512;-0.382;2023-04-19T00:36:55;9.50;99.90
30037;DHT22;36325;51.512;-0.382;2023-04-19T00:39:22;9.50;99.90
30037;DHT22;36325;51.512;-0.382;2023-04-19T00:41:50;9.50;99.90
30037;DHT22;36325;51.512;-0.382;2023-04-19T00:44:19;9.50;99.90
30037;DHT22;36325;51.512;-0.382;2023-04-19T00:46:47;9.40;99.90
30037;DHT22;36325;51.512;-0.382;2023-04-19T00:49:16;9.40;99.90
30037;DHT22;36325;51.512;-0.382;2023-04-19T00:51:44;9.40;99.90
30037;DHT22;36325;51.512;-0.382;2023-04-19T00:54:13;9.30;99.90
30037;DHT22;36325;51.512;-0.382;2023-04-19T00:56:43;9.40;99.90
30037;DHT22;36325;51.512;-0.382;2023-04-19T00:59:13;9.40;99.90
30037;DHT22;36325;51.512;-0.382;2023-04-19T01:01:41;9.40;99.90
30037;DHT22;36325;51.512;-0.382;2023-04-19T01:04:09;9.40;99.90
30037;DHT22;36325;51.512;-0.382;2023-04-19T01:06:39;9.40;99.90
30037;DHT22;36325;51.512;-0.382;2023-04-19T01:09:10;9.30;99.90
30037;DHT22;36325;51.512;-0.382;2023-04-19T01:11:39;9.30;99.90
30037;DHT22;36325;51.512;-0.382;2023-04-19T01:14:09;9.30;99.90
30037;DHT22;36325;51.512;-0.382;2023-04-19T01:16:37;9.30;99.90
30037;DHT22;36325;51.512;-0.382;2023-04-19T01:19:05;9.30;99.90
30037;DHT22;36325;51.512;-0.382;2023-04-19T01:21:32;9.30;99.90
30037;DHT22;36325;51.512;-0.382;2023-04-19T01:24:04;9.30;99.90
30037;DHT22;36325;51.512;-0.382;2023-04-19T01:26:32;9.30;99.90
30037;DHT22;36325;51.512;-0.382;2023-04-19T01:33:56;9.20;99.90
30037;DHT22;36325;51.512;-0.382;2023-04-19T01:36:24;9.20;99.90
30037;DHT22;36325;51.512;-0.382;2023-04-19T01:38:51;9.20;99.90
30037;DHT22;36325;51.512;-0.382;2023-04-19T01:41:19;9.20;99.90
30037;DHT22;36325;51.512;-0.382;2023-04-19T01:43:47;9.20;99.90
30037;DHT22;36325;51.512;-0.382;2023-04-19T01:46:15;9.20;99.90
30037;DHT22;36325;51.512;-0.382;2023-04-19T01:48:42;9.20;99.90
30037;DHT22;36325;51.512;-0.382;2023-04-19T01:51:10;9.10;99.90
30037;DHT22;36325;51.512;-0.382;2023-04-19T01:53:38;9.10;99.90
30037;DHT22;36325;51.512;-0.382;2023-04-19T01:56:05;9.10;99.90
30037;DHT22;36325;51.512;-0.382;2023-04-19T02:01:00;9.10;99.90
30037;DHT22;36325;51.512;-0.382;2023-04-19T02:03:27;9.00;99.90
30037;DHT22;36325;51.512;-0.382;2023-04-19T02:05:54;9.00;99.90
30037;DHT22;36325;51.512;-0.382;2023-04-19T02:08:21;9.00;99.90
30037;DHT22;36325;51.512;-0.382;2023-04-19T02:10:48;9.00;99.90
30037;DHT22;36325;51.512;-0.382;2023-04-19T02:13:16;8.90;99.90
30037;DHT22;36325;51.512;-0.382;2023-04-19T02:15:43;8.90;99.90
30037;DHT22;36325;51.512;-0.382;2023-04-19T02:18:10;8.90;99.90
30037;DHT22;36325;51.512;-0.382;2023-04-19T02:20:39;8.90;99.90
30037;DHT22;36325;51.512;-0.382;2023-04-19T02:23:06;10.30;99.90
30037;DHT22;36325;51.512;-0.382;2023-04-19T02:25:34;8.80;99.90
30037;DHT22;36325;51.512;-0.382;2023-04-19T02:28:01;8.80;99.90
30037;DHT22;36325;51.512;-0.382;2023-04-19T02:30:28;8.80;99.90
30037;DHT22;36325;51.512;-0.382;2023-04-19T02:35:24;8.80;99.90
30037;DHT22;36325;51.512;-0.382;2023-04-19T02:37:51;8.70;99.90
30037;DHT22;36325;51.512;-0.382;2023-04-19T02:40:19;8.70;99.90
30037;DHT22;36325;51.512;-0.382;2023-04-19T02:42:49;8.70;99.90
30037;DHT22;36325;51.512;-0.382;2023-04-19T02:45:17;8.70;99.90
30037;DHT22;36325;51.512;-0.382;2023-04-19T02:47:45;8.70;99.90
30037;DHT22;36325;51.512;-0.382;2023-04-19T02:50:15;8.70;99.90
30037;DHT22;36325;51.512;-0.382;2023-04-19T02:52:47;8.70;99.90
30037;DHT22;36325;51.512;-0.382;2023-04-19T02:55:15;8.70;99.90
30037;DHT22;36325;51.512;-0.382;2023-04-19T02:57:44;8.70;99.90
30037;DHT22;36325;51.512;-0.382;2023-04-19T03:00:11;8.70;99.90
30037;DHT22;36325;51.512;-0.382;2023-04-19T03:02:46;8.70;99.90
30037;DHT22;36325;51.512;-0.382;2023-04-19T03:05:14;8.70;99.90
30037;DHT22;36325;51.512;-0.382;2023-04-19T03:07:41;8.70;99.90
30037;DHT22;36325;51.512;-0.382;2023-04-19T03:10:10;8.70;99.90
30037;DHT22;36325;51.512;-0.382;2023-04-19T03:12:37;8.70;99.90
30037;DHT22;36325;51.512;-0.382;2023-04-19T03:15:05;8.70;99.90
30037;DHT22;36325;51.512;-0.382;2023-04-19T03:17:33;8.70;99.90
30037;DHT22;36325;51.512;-0.382;2023-04-19T03:20:00;8.60;99.90
30037;DHT22;36325;51.512;-0.382;2023-04-19T03:22:28;8.70;99.90
30037;DHT22;36325;51.512;-0.382;2023-04-19T03:24:55;8.70;99.90
30037;DHT22;36325;51.512;-0.382;2023-04-19T03:27:23;8.70;99.90
30037;DHT22;36325;51.512;-0.382;2023-04-19T03:29:56;8.70;99.90
30037;DHT22;36325;51.512;-0.382;2023-04-19T03:32:25;8.70;99.90
30037;DHT22;36325;51.512;-0.382;2023-04-19T03:34:52;8.70;99.90
30037;DHT22;36325;51.512;-0.382;2023-04-19T03:37:19;8.70;99.90
30037;DHT22;36325;51.512;-0.382;2023-04-19T03:39:47;8.70;99.90
30037;DHT22;36325;51.512;-0.382;2023-04-19T03:42:22;8.70;99.90
30037;DHT22;36325;51.512;-0.382;2023-04-19T03:45:18;8.70;99.90
30037;DHT22;36325;51.512;-0.382;2023-04-19T03:47:51;8.80;99.90
30037;DHT22;36325;51.512;-0.382;2023-04-19T03:50:18;8.80;99.90
30037;DHT22;36325;51.512;-0.382;2023-04-19T03:52:49;8.80;99.90
30037;DHT22;36325;51.512;-0.382;2023-04-19T03:55:16;8.80;99.90
30037;DHT22;36325;51.512;-0.382;2023-04-19T03:57:43;8.80;99.90
30037;DHT22;36325;51.512;-0.382;2023-04-19T04:00:19;8.70;99.90
30037;DHT22;36325;51.512;-0.382;2023-04-19T04:02:53;8.80;99.90
30037;DHT22;36325;51.512;-0.382;2023-04-19T04:05:21;8.80;99.90
30037;DHT22;36325;51.512;-0.382;2023-04-19T04:07:48;8.80;99.90
30037;DHT22;36325;51.512;-0.382;2023-04-19T04:10:17;8.70;99.90
30037;DHT22;36325;51.512;-0.382;2023-04-19T04:12:46;8.70;99.90
30037;DHT22;36325;51.512;-0.382;2023-04-19T04:15:20;8.70;99.90
30037;DHT22;36325;51.512;-0.382;2023-04-19T04:17:51;8.70;99.90
30037;DHT22;36325;51.512;-0.382;2023-04-19T04:20:20;8.70;99.90
30037;DHT22;36325;51.512;-0.382;2023-04-19T04:22:48;8.70;99.90
30037;DHT22;36325;51.512;-0.382;2023-04-19T04:25:17;8.70;99.90
30037;DHT22;36325;51.512;-0.382;2023-04-19T04:27:50;8.70;99.90
30037;DHT22;36325;51.512;-0.382;2023-04-19T04:30:20;8.60;99.90
30037;DHT22;36325;51.512;-0.382;2023-04-19T04:32:47;8.60;99.90
30037;DHT22;36325;51.512;-0.382;2023-04-19T04:35:17;8.60;99.90
30037;DHT22;36325;51.512;-0.382;2023-04-19T04:37:56;8.50;99.90
30037;DHT22;36325;51.512;-0.382;2023-04-19T04:40:23;8.50;99.90
30037;DHT22;36325;51.512;-0.382;2023-04-19T04:42:55;10.50;99.90
30037;DHT22;36325;51.512;-0.382;2023-04-19T04:45:22;8.50;99.90
30037;DHT22;36325;51.512;-0.382;2023-04-19T04:47:50;8.40;99.90
30037;DHT22;36325;51.512;-0.382;2023-04-19T04:50:18;8.40;99.90
30037;DHT22;36325;51.512;-0.382;2023-04-19T04:52:47;8.40;99.90
30037;DHT22;36325;51.512;-0.382;2023-04-19T04:55:25;8.40;99.90
30037;DHT22;36325;51.512;-0.382;2023-04-19T04:57:52;8.30;99.90
30037;DHT22;36325;51.512;-0.382;2023-04-19T05:00:27;8.30;99.90
30037;DHT22;36325;51.512;-0.382;2023-04-19T05:03:01;8.30;99.90
30037;DHT22;36325;51.512;-0.382;2023-04-19T05:08:01;8.20;99.90
30037;DHT22;36325;51.512;-0.382;2023-04-19T05:10:28;8.20;99.90
30037;DHT22;36325;51.512;-0.382;2023-04-19T05:15:24;8.20;99.90
30037;DHT22;36325;51.512;-0.382;2023-04-19T05:20:21;8.20;99.90
30037;DHT22;36325;51.512;-0.382;2023-04-19T05:22:59;8.20;99.90
30037;DHT22;36325;51.512;-0.382;2023-04-19T05:25:30;8.20;99.90
30037;DHT22;36325;51.512;-0.382;2023-04-19T05:27:58;8.20;99.90
30037;DHT22;36325;51.512;-0.382;2023-04-19T05:30:31;8.20;99.90
30037;DHT22;36325;51.512;-0.382;2023-04-19T05:33:00;8.20;99.90
30037;DHT22;36325;51.512;-0.382;2023-04-19T05:35:27;8.20;99.90
30037;DHT22;36325;51.512;-0.382;2023-04-19T05:37:55;8.30;99.90
30037;DHT22;36325;51.512;-0.382;2023-04-19T05:40:23;8.30;99.90
30037;DHT22;36325;51.512;-0.382;2023-04-19T05:42:50;8.40;99.90
30037;DHT22;36325;51.512;-0.382;2023-04-19T05:45:17;7.60;99.90
30037;DHT22;36325;51.512;-0.382;2023-04-19T05:47:45;8.40;99.90
30037;DHT22;36325;51.512;-0.382;2023-04-19T05:50:30;8.40;99.90
30037;DHT22;36325;51.512;-0.382;2023-04-19T05:53:28;8.50;99.90
30037;DHT22;36325;51.512;-0.382;2023-04-19T05:55:56;8.50;99.90
30037;DHT22;36325;51.512;-0.382;2023-04-19T06:00:51;8.50;99.90
30037;DHT22;36325;51.512;-0.382;2023-04-19T06:05:48;8.60;99.90
30037;DHT22;36325;51.512;-0.382;2023-04-19T06:08:16;8.70;99.90
30037;DHT22;36325;51.512;-0.382;2023-04-19T06:10:45;8.80;99.90
30037;DHT22;36325;51.512;-0.382;2023-04-19T06:13:21;8.80;99.90
30037;DHT22;36325;51.512;-0.382;2023-04-19T06:15:50;8.90;99.90
30037;DHT22;36325;51.512;-0.382;2023-04-19T06:18:17;8.90;99.90
30037;DHT22;36325;51.512;-0.382;2023-04-19T06:20:46;8.90;99.90
30037;DHT22;36325;51.512;-0.382;2023-04-19T06:23:13;9.00;99.90
30037;DHT22;36325;51.512;-0.382;2023-04-19T06:25:41;9.10;99.90
30037;DHT22;36325;51.512;-0.382;2023-04-19T06:28:08;9.10;99.90
30037;DHT22;36325;51.512;-0.382;2023-04-19T06:30:35;9.20;99.90
30037;DHT22;36325;51.512;-0.382;2023-04-19T06:33:02;9.20;99.90
30037;DHT22;36325;51.512;-0.382;2023-04-19T06:35:30;9.30;99.90
30037;DHT22;36325;51.512;-0.382;2023-04-19T06:37:58;9.30;99.90
30037;DHT22;36325;51.512;-0.382;2023-04-19T06:42:55;9.40;99.90
30037;DHT22;36325;51.512;-0.382;2023-04-19T06:47:50;9.60;99.90
30037;DHT22;36325;51.512;-0.382;2023-04-19T06:50:17;9.70;99.90
30037;DHT22;36325;51.512;-0.382;2023-04-19T06:52:45;9.70;99.90
30037;DHT22;36325;51.512;-0.382;2023-04-19T06:55:12;9.80;99.90
30037;DHT22;36325;51.512;-0.382;2023-04-19T06:57:39;9.90;99.90
30037;DHT22;36325;51.512;-0.382;2023-04-19T07:02:34;10.00;99.90
30037;DHT22;36325;51.512;-0.382;2023-04-19T07:05:02;10.10;99.90
30037;DHT22;36325;51.512;-0.382;2023-04-19T07:07:29;10.20;99.90
30037;DHT22;36325;51.512;-0.382;2023-04-19T07:09:56;10.20;99.90
30037;DHT22;36325;51.512;-0.382;2023-04-19T07:12:24;10.30;99.90
30037;DHT22;36325;51.512;-0.382;2023-04-19T07:14:51;10.40;99.90
30037;DHT22;36325;51.512;-0.382;2023-04-19T07:17:22;10.50;99.90
30037;DHT22;36325;51.512;-0.382;2023-04-19T07:19:49;10.60;99.90
30037;DHT22;36325;51.512;-0.382;2023-04-19T07:22:17;10.70;99.90
30037;DHT22;36325;51.512;-0.382;2023-04-19T07:27:11;11.60;99.90
30037;DHT22;36325;51.512;-0.382;2023-04-19T07:29:40;11.10;99.90
30037;DHT22;36325;51.512;-0.382;2023-04-19T07:32:07;11.20;99.90
30037;DHT22;36325;51.512;-0.382;2023-04-19T07:34:36;11.30;99.90
30037;DHT22;36325;51.512;-0.382;2023-04-19T07:37:04;11.50;99.90
30037;DHT22;36325;51.512;-0.382;2023-04-19T07:39:32;11.70;99.90
30037;DHT22;36325;51.512;-0.382;2023-04-19T07:41:59;11.90;99.90
30037;DHT22;36325;51.512;-0.382;2023-04-19T07:44:28;12.00;99.90
30037;DHT22;36325;51.512;-0.382;2023-04-19T07:46:55;10.90;99.90
30037;DHT22;36325;51.512;-0.382;2023-04-19T07:49:23;12.20;99.90
30037;DHT22;36325;51.512;-0.382;2023-04-19T07:51:50;12.30;99.90
30037;DHT22;36325;51.512;-0.382;2023-04-19T07:54:17;12.40;99.90
30037;DHT22;36325;51.512;-0.382;2023-04-19T07:56:46;12.50;99.90
30037;DHT22;36325;51.512;-0.382;2023-04-19T07:59:13;12.50;99.90
30037;DHT22;36325;51.512;-0.382;2023-04-19T08:01:41;12.50;99.90
30037;DHT22;36325;51.512;-0.382;2023-04-19T08:04:09;12.60;99.90
30037;DHT22;36325;51.512;-0.382;2023-04-19T08:06:37;12.80;99.90
30037;DHT22;36325;51.512;-0.382;2023-04-19T08:09:05;12.80;99.90
30037;DHT22;36325;51.512;-0.382;2023-04-19T08:11:32;12.90;99.90
30037;DHT22;36325;51.512;-0.382;2023-04-19T08:14:00;12.90;99.90
30037;DHT22;36325;51.512;-0.382;2023-04-19T08:16:37;13.00;99.90
30037;DHT22;36325;51.512;-0.382;2023-04-19T08:19:24;13.00;99.90
30037;DHT22;36325;51.512;-0.382;2023-04-19T08:21:51;13.20;99.90
30037;DHT22;36325;51.512;-0.382;2023-04-19T08:24:18;13.40;99.90
30037;DHT22;36325;51.512;-0.382;2023-04-19T08:26:46;13.80;99.90
30037;DHT22;36325;51.512;-0.382;2023-04-19T08:29:20;13.90;99.90
30037;DHT22;36325;51.512;-0.382;2023-04-19T08:31:48;14.10;99.90
30037;DHT22;36325;51.512;-0.382;2023-04-19T08:34:15;14.00;99.90
30037;DHT22;36325;51.512;-0.382;2023-04-19T08:36:43;13.90;99.90
30037;DHT22;36325;51.512;-0.382;2023-04-19T08:39:26;13.80;99.90
30037;DHT22;36325;51.512;-0.382;2023-04-19T08:42:06;13.80;99.90
30037;DHT22;36325;51.512;-0.382;2023-04-19T08:44:45;13.80;99.90
30037;DHT22;36325;51.512;-0.382;2023-04-19T08:47:34;13.80;99.90
30037;DHT22;36325;51.512;-0.382;2023-04-19T08:50:13;13.80;99.90
30037;DHT22;36325;51.512;-0.382;2023-04-19T08:52:58;13.80;99.90
30037;DHT22;36325;51.512;-0.382;2023-04-19T08:55:42;13.80;99.90
30037;DHT22;36325;51.512;-0.382;2023-04-19T08:58:25;14.00;99.90
30037;DHT22;36325;51.512;-0.382;2023-04-19T09:03:27;14.10;99.90
30037;DHT22;36325;51.512;-0.382;2023-04-19T09:05:54;14.10;99.90
30037;DHT22;36325;51.512;-0.382;2023-04-19T09:08:29;14.10;99.90
30037;DHT22;36325;51.512;-0.382;2023-04-19T09:11:00;14.20;99.90
30037;DHT22;36325;51.512;-0.382;2023-04-19T09:13:28;14.20;99.90
30037;DHT22;36325;51.512;-0.382;2023-04-19T09:15:56;14.20;99.90
30037;DHT22;36325;51.512;-0.382;2023-04-19T09:18:26;17.90;99.90
30037;DHT22;36325;51.512;-0.382;2023-04-19T09:20:57;14.20;99.90
30037;DHT22;36325;51.512;-0.382;2023-04-19T09:23:26;14.20;99.90
30037;DHT22;36325;51.512;-0.382;2023-04-19T09:25:59;14.20;99.90
30037;DHT22;36325;51.512;-0.382;2023-04-19T09:28:30;14.10;99.90
30037;DHT22;36325;51.512;-0.382;2023-04-19T09:31:09;14.10;99.90
30037;DHT22;36325;51.512;-0.382;2023-04-19T09:33:57;14.10;99.90
30037;DHT22;36325;51.512;-0.382;2023-04-19T09:36:29;14.20;99.90
30037;DHT22;36325;51.512;-0.382;2023-04-19T09:38:57;14.20;99.90
30037;DHT22;36325;51.512;-0.382;2023-04-19T09:41:25;14.10;99.90
30037;DHT22;36325;51.512;-0.382;2023-04-19T09:43:52;14.10;99.90
30037;DHT22;36325;51.512;-0.382;2023-04-19T09:46:34;14.00;99.90
30037;DHT22;36325;51.512;-0.382;2023-04-19T09:51:52;14.20;99.90
30037;DHT22;36325;51.512;-0.382;2023-04-19T09:54:23;14.20;99.90
30037;DHT22;36325;51.512;-0.382;2023-04-19T09:56:51;14.30;99.90
30037;DHT22;36325;51.512;-0.382;2023-04-19T09:59:22;14.40;99.90
30037;DHT22;36325;51.512;-0.382;2023-04-19T10:01:56;14.40;99.90
30037;DHT22;36325;51.512;-0.382;2023-04-19T10:04:25;14.40;99.90
30037;DHT22;36325;51.512;-0.382;2023-04-19T10:07:10;14.40;99.90
30037;DHT22;36325;51.512;-0.382;2023-04-19T10:09:40;14.50;99.90
30037;DHT22;36325;51.512;-0.382;2023-04-19T10:12:17;14.50;99.90
30037;DHT22;36325;51.512;-0.382;2023-04-19T10:15:08;14.60;99.90
30037;DHT22;36325;51.512;-0.382;2023-04-19T10:17:37;14.70;99.90
30037;DHT22;36325;51.512;-0.382;2023-04-19T10:20:08;14.80;99.90
30037;DHT22;36325;51.512;-0.382;2023-04-19T10:22:37;14.80;99.90
30037;DHT22;36325;51.512;-0.382;2023-04-19T10:25:09;14.90;99.90
30037;DHT22;36325;51.512;-0.382;2023-04-19T10:27:40;15.00;99.90
30037;DHT22;36325;51.512;-0.382;2023-04-19T10:30:22;15.10;99.90
30037;DHT22;36325;51.512;-0.382;2023-04-19T10:32:55;15.00;99.90
30037;DHT22;36325;51.512;-0.382;2023-04-19T10:35:25;14.60;99.90
30037;DHT22;36325;51.512;-0.382;2023-04-19T10:38:13;14.60;99.90
30037;DHT22;36325;51.512;-0.382;2023-04-19T10:43:23;14.80;99.90
30037;DHT22;36325;51.512;-0.382;2023-04-19T10:45:51;14.90;99.90
30037;DHT22;36325;51.512;-0.382;2023-04-19T10:51:04;14.80;99.90
30037;DHT22;36325;51.512;-0.382;2023-04-19T10:53:45;14.80;99.90
30037;DHT22;36325;51.512;-0.382;2023-04-19T10:56:14;15.00;99.90
30037;DHT22;36325;51.512;-0.382;2023-04-19T11:03:59;15.50;99.90
30037;DHT22;36325;51.512;-0.382;2023-04-19T11:06:27;15.70;99.90
30037;DHT22;36325;51.512;-0.382;2023-04-19T11:08:54;15.80;99.90
30037;DHT22;36325;51.512;-0.382;2023-04-19T11:11:21;16.00;99.90
30037;DHT22;36325;51.512;-0.382;2023-04-19T11:13:49;16.00;99.90
30037;DHT22;36325;51.512;-0.382;2023-04-19T11:16:16;16.30;99.90
30037;DHT22;36325;51.512;-0.382;2023-04-19T11:18:45;16.30;99.90
30037;DHT22;36325;51.512;-0.382;2023-04-19T11:21:13;15.30;99.90
30037;DHT22;36325;51.512;-0.382;2023-04-19T11:23:40;16.10;99.90
30037;DHT22;36325;51.512;-0.382;2023-04-19T11:26:11;16.40;99.90
30037;DHT22;36325;51.512;-0.382;2023-04-19T11:28:38;16.40;99.90
30037;DHT22;36325;51.512;-0.382;2023-04-19T11:31:06;16.60;99.90
30037;DHT22;36325;51.512;-0.382;2023-04-19T11:33:34;16.90;99.90
30037;DHT22;36325;51.512;-0.382;2023-04-19T11:36:02;17.50;99.90
30037;DHT22;36325;51.512;-0.382;2023-04-19T11:38:30;17.70;99.90
30037;DHT22;36325;51.512;-0.382;2023-04-19T11:40:58;17.70;99.90
30037;DHT22;36325;51.512;-0.382;2023-04-19T11:43:36;17.60;99.90
30037;DHT22;36325;51.512;-0.382;2023-04-19T11:46:10;18.00;99.90
30037;DHT22;36325;51.512;-0.382;2023-04-19T11:48:38;18.00;99.90
30037;DHT22;36325;51.512;-0.382;2023-04-19T11:51:15;18.20;99.90
30037;DHT22;36325;51.512;-0.382;2023-04-19T11:53:42;18.40;99.90
30037;DHT22;36325;51.512;-0.382;2023-04-19T11:56:09;18.30;99.90
30037;DHT22;36325;51.512;-0.382;2023-04-19T11:58:41;18.30;99.90
30037;DHT22;36325;51.512;-0.382;2023-04-19T12:01:19;18.40;99.90
30037;DHT22;36325;51.512;-0.382;2023-04-19T12:03:48;18.30;99.90
30037;DHT22;36325;51.512;-0.382;2023-04-19T12:06:27;18.20;99.90
30037;DHT22;36325;51.512;-0.382;2023-04-19T12:08:56;18.50;99.90
30037;DHT22;36325;51.512;-0.382;2023-04-19T12:11:25;18.70;99.90
30037;DHT22;36325;51.512;-0.382;2023-04-19T12:14:09;19.10;99.90
30037;DHT22;36325;51.512;-0.382;2023-04-19T12:16:37;19.60;99.90
30037;DHT22;36325;51.512;-0.382;2023-04-19T12:19:12;19.50;99.90
30037;DHT22;36325;51.512;-0.382;2023-04-19T12:21:40;19.00;99.90
30037;DHT22;36325;51.512;-0.382;2023-04-19T12:24:07;18.60;99.90
30037;DHT22;36325;51.512;-0.382;2023-04-19T12:26:35;18.40;99.90
30037;DHT22;36325;51.512;-0.382;2023-04-19T12:29:02;18.30;99.90
30037;DHT22;36325;51.512;-0.382;2023-04-19T12:31:30;18.80;99.90
30037;DHT22;36325;51.512;-0.382;2023-04-19T12:34:01;19.10;99.90
30037;DHT22;36325;51.512;-0.382;2023-04-19T12:36:28;20.80;99.90
30037;DHT22;36325;51.512;-0.382;2023-04-19T12:38:56;20.80;99.90
30037;DHT22;36325;51.512;-0.382;2023-04-19T12:41:23;21.00;99.90
30037;DHT22;36325;51.512;-0.382;2023-04-19T12:43:50;20.70;99.90
30037;DHT22;36325;51.512;-0.382;2023-04-19T12:46:17;21.50;99.90
30037;DHT22;36325;51.512;-0.382;2023-04-19T12:48:44;22.90;99.90
30037;DHT22;36325;51.512;-0.382;2023-04-19T12:51:11;23.80;99.90
30037;DHT22;36325;51.512;-0.382;2023-04-19T12:53:40;22.70;99.90
30037;DHT22;36325;51.512;-0.382;2023-04-19T12:56:07;22.70;99.90
30037;DHT22;36325;51.512;-0.382;2023-04-19T12:58:35;22.60;99.90
30037;DHT22;36325;51.512;-0.382;2023-04-19T13:01:02;22.60;99.90
30037;DHT22;36325;51.512;-0.382;2023-04-19T13:03:29;22.20;99.90
30037;DHT22;36325;51.512;-0.382;2023-04-19T13:05:59;21.80;99.90
30037;DHT22;36325;51.512;-0.382;2023-04-19T13:08:27;22.00;99.90
30037;DHT22;36325;51.512;-0.382;2023-04-19T13:11:10;21.90;99.90
30037;DHT22;36325;51.512;-0.382;2023-04-19T13:13:37;21.40;99.90
30037;DHT22;36325;51.512;-0.382;2023-04-19T13:16:05;21.20;99.90
30037;DHT22;36325;51.512;-0.382;2023-04-19T13:18:33;21.50;99.90
30037;DHT22;36325;51.512;-0.382;2023-04-19T13:21:01;21.80;99.90
30037;DHT22;36325;51.512;-0.382;2023-04-19T13:23:28;22.20;99.90
30037;DHT22;36325;51.512;-0.382;2023-04-19T13:25:55;22.50;99.90
30037;DHT22;36325;51.512;-0.382;2023-04-19T13:28:22;23.80;99.90
30037;DHT22;36325;51.512;-0.382;2023-04-19T13:30:49;25.00;99.90
30037;DHT22;36325;51.512;-0.382;2023-04-19T13:33:16;25.50;99.90
30037;DHT22;36325;51.512;-0.382;2023-04-19T13:35:44;25.60;99.90
30037;DHT22;36325;51.512;-0.382;2023-04-19T13:38:11;25.60;99.90
30037;DHT22;36325;51.512;-0.382;2023-04-19T13:40:38;25.50;99.90
30037;DHT22;36325;51.512;-0.382;2023-04-19T13:43:07;24.30;99.90
30037;DHT22;36325;51.512;-0.382;2023-04-19T13:45:34;23.00;99.90
30037;DHT22;36325;51.512;-0.382;2023-04-19T13:48:01;22.20;99.90
30037;DHT22;36325;51.512;-0.382;2023-04-19T13:50:35;22.10;99.90
30037;DHT22;36325;51.512;-0.382;2023-04-19T13:53:02;23.70;99.90
30037;DHT22;36325;51.512;-0.382;2023-04-19T13:55:31;24.40;99.90
30037;DHT22;36325;51.512;-0.382;2023-04-19T13:57:58;24.40;99.90
30037;DHT22;36325;51.512;-0.382;2023-04-19T14:00:26;24.90;99.90
30037;DHT22;36325;51.512;-0.382;2023-04-19T14:02:54;25.60;99.90
30037;DHT22;36325;51.512;-0.382;2023-04-19T14:05:25;26.00;99.90
30037;DHT22;36325;51.512;-0.382;2023-04-19T14:07:53;26.20;99.90
30037;DHT22;36325;51.512;-0.382;2023-04-19T14:10:20;25.90;99.90
30037;DHT22;36325;51.512;-0.382;2023-04-19T14:12:47;25.30;99.90
30037;DHT22;36325;51.512;-0.382;2023-04-19T14:15:15;24.90;99.90
30037;DHT22;36325;51.512;-0.382;2023-04-19T14:17:42;24.70;99.90
30037;DHT22;36325;51.512;-0.382;2023-04-19T14:20:10;24.10;99.90
30037;DHT22;36325;51.512;-0.382;2023-04-19T14:22:38;23.20;99.90
30037;DHT22;36325;51.512;-0.382;2023-04-19T14:25:05;23.20;99.90
30037;DHT22;36325;51.512;-0.382;2023-04-19T14:27:33;23.20;99.90
30037;DHT22;36325;51.512;-0.382;2023-04-19T14:30:00;23.90;99.90
30037;DHT22;36325;51.512;-0.382;2023-04-19T14:32:27;24.80;99.90
30037;DHT22;36325;51.512;-0.382;2023-04-19T14:34:55;25.20;99.90
30037;DHT22;36325;51.512;-0.382;2023-04-19T14:37:22;25.60;99.90
30037;DHT22;36325;51.512;-0.382;2023-04-19T14:39:50;25.90;99.90
30037;DHT22;36325;51.512;-0.382;2023-04-19T14:42:18;26.40;99.00
30037;DHT22;36325;51.512;-0.382;2023-04-19T14:44:52;26.30;99.10
30037;DHT22;36325;51.512;-0.382;2023-04-19T14:47:19;26.20;99.60
30037;DHT22;36325;51.512;-0.382;2023-04-19T14:49:47;26.50;98.40
30037;DHT22;36325;51.512;-0.382;2023-04-19T14:52:15;26.60;97.40
30037;DHT22;36325;51.512;-0.382;2023-04-19T14:54:43;26.60;96.80
30037;DHT22;36325;51.512;-0.382;2023-04-19T14:57:11;26.90;96.10
30037;DHT22;36325;51.512;-0.382;2023-04-19T14:59:38;27.00;95.60
30037;DHT22;36325;51.512;-0.382;2023-04-19T15:02:06;26.80;95.30
30037;DHT22;36325;51.512;-0.382;2023-04-19T15:04:35;26.50;94.60
30037;DHT22;36325;51.512;-0.382;2023-04-19T15:09:34;26.40;94.80
30037;DHT22;36325;51.512;-0.382;2023-04-19T15:12:01;26.40;95.10
30037;DHT22;36325;51.512;-0.382;2023-04-19T15:14:28;26.40;94.90
30037;DHT22;36325;51.512;-0.382;2023-04-19T15:16:55;26.10;93.80
30037;DHT22;36325;51.512;-0.382;2023-04-19T15:19:23;25.70;93.80
30037;DHT22;36325;51.512;-0.382;2023-04-19T15:21:50;26.00;92.40
30037;DHT22;36325;51.512;-0.382;2023-04-19T15:24:18;25.90;92.60
30037;DHT22;36325;51.512;-0.382;2023-04-19T15:26:45;25.50;92.50
30037;DHT22;36325;51.512;-0.382;2023-04-19T15:29:12;25.30;92.80
30037;DHT22;36325;51.512;-0.382;2023-04-19T15:31:40;25.10;92.80
30037;DHT22;36325;51.512;-0.382;2023-04-19T15:34:07;24.80;92.80
30037;DHT22;36325;51.512;-0.382;2023-04-19T15:36:34;24.80;93.20
30037;DHT22;36325;51.512;-0.382;2023-04-19T15:39:02;24.70;93.40
30037;DHT22;36325;51.512;-0.382;2023-04-19T15:41:29;24.90;93.40
30037;DHT22;36325;51.512;-0.382;2023-04-19T15:43:56;24.80;93.00
30037;DHT22;36325;51.512;-0.382;2023-04-19T15:46:24;24.70;93.10
30037;DHT22;36325;51.512;-0.382;2023-04-19T15:48:51;24.70;92.90
30037;DHT22;36325;51.512;-0.382;2023-04-19T15:51:18;24.50;92.90
30037;DHT22;36325;51.512;-0.382;2023-04-19T15:53:45;24.30;92.30
30037;DHT22;36325;51.512;-0.382;2023-04-19T15:56:13;23.80;92.50
30037;DHT22;36325;51.512;-0.382;2023-04-19T15:58:40;23.80;92.60
30037;DHT22;36325;51.512;-0.382;2023-04-19T16:01:11;25.90;92.60
30037;DHT22;36325;51.512;-0.382;2023-04-19T16:03:39;23.30;92.00
30037;DHT22;36325;51.512;-0.382;2023-04-19T16:06:08;23.40;92.00
30037;DHT22;36325;51.512;-0.382;2023-04-19T16:08:36;23.40;92.20
30037;DHT22;36325;51.512;-0.382;2023-04-19T16:11:04;23.40;92.00
30037;DHT22;36325;51.512;-0.382;2023-04-19T16:13:31;23.30;91.90
30037;DHT22;36325;51.512;-0.382;2023-04-19T16:15:59;23.20;92.10
30037;DHT22;36325;51.512;-0.382;2023-04-19T16:18:27;23.10;92.00
30037;DHT22;36325;51.512;-0.382;2023-04-19T16:20:54;23.40;91.80
30037;DHT22;36325;51.512;-0.382;2023-04-19T16:23:23;23.50;91.90
30037;DHT22;36325;51.512;-0.382;2023-04-19T16:25:50;23.60;91.80
30037;DHT22;36325;51.512;-0.382;2023-04-19T16:28:17;23.70;91.70
30037;DHT22;36325;51.512;-0.382;2023-04-19T16:30:46;23.20;91.40